Time;durP1;ratioP1;P1;durP2;ratioP2;P2;SDS_P1;SDS_P2;PMS_P1;PMS_P2;Temp;Humidity;BMP_temperature;BMP_pressure;BME280_temperature;BME280_humidity;BME280_pressure;Samples;Min_cycle;Max_cycle;Signal;HPM_P1;HPM_P2
2022/06/21 00:00:29;;;;;;;9.80;5.60;;;;;;;9.67;92.38;101627.28;1048011;28;20298;-79
2022/06/21 00:01:01;;;;;;;6.85;5.30;;;;;;;9.08;91.37;101624.81;1041980;28;20311;-80
2022/06/21 00:01:33;;;;;;;10.27;5.65;;;;;;;8.80;91.52;101625.53;1048051;28;20306;-80
2022/06/21 00:02:05;;;;;;;7.95;4.32;;;;;;;8.60;92.68;101622.59;1047926;28;20696;-79
2022/06/21 00:02:37;;;;;;;10.77;5.63;;;;;;;8.92;93.21;101628.50;1058985;27;20305;-80
2022/06/21 00:03:11;;;;;;;7.53;4.85;;;;;;;9.03;92.69;101625.38;1051994;28;20296;-80
2022/06/21 00:03:44;;;;;;;5.78;4.63;;;;;;;9.11;92.99;101624.44;1049064;28;20717;-80
2022/06/21 00:04:16;;;;;;;5.95;4.93;;;;;;;9.25;93.15;101627.06;1056068;28;20293;-80
2022/06/21 00:04:47;;;;;;;8.07;5.05;;;;;;;9.32;93.34;101621.84;1053502;28;20286;-80
2022/06/21 00:05:34;;;;;;;7.90;5.43;;;;;;;9.37;93.77;101626.56;1060732;27;20311;-79
2022/06/21 00:06:06;;;;;;;9.02;5.38;;;;;;;8.94;93.17;101627.31;1049639;28;20400;-79
2022/06/21 00:06:37;;;;;;;6.13;4.85;;;;;;;8.98;93.34;101631.25;1048259;28;20298;-79
2022/06/21 00:07:12;;;;;;;7.35;5.50;;;;;;;9.20;93.72;101628.63;1050499;28;20299;-79
2022/06/21 00:07:44;;;;;;;8.63;5.85;;;;;;;9.19;93.02;101630.47;1051940;28;20795;-79
2022/06/21 00:08:36;;;;;;;8.38;4.70;;;;;;;8.72;93.87;101627.44;1059881;27;20390;-80
2022/06/21 00:09:12;;;;;;;5.25;4.40;;;;;;;8.46;94.08;101634.03;1045954;28;20307;-80
2022/06/21 00:09:43;;;;;;;12.27;4.47;;;;;;;8.66;94.03;101632.47;1053952;28;20309;-79
2022/06/21 00:10:18;;;;;;;5.97;3.90;;;;;;;8.67;93.92;101622.66;1060774;27;20300;-79
2022/06/21 00:10:50;;;;;;;6.40;4.53;;;;;;;8.38;94.35;101631.47;1056021;28;20312;-79
2022/06/21 00:11:33;;;;;;;4.57;4.10;;;;;;;8.31;94.39;101626.03;1044029;28;20434;-79
2022/06/21 00:12:06;;;;;;;9.07;4.80;;;;;;;8.15;95.25;101623.53;1048024;28;20382;-79
2022/06/21 00:12:37;;;;;;;5.60;4.40;;;;;;;8.12;95.62;101623.91;1054812;28;20309;-80
2022/06/21 00:13:18;;;;;;;5.95;4.75;;;;;;;8.16;95.79;101619.88;1054128;28;20298;-79
2022/06/21 00:13:49;;;;;;;12.88;5.53;;;;;;;8.13;96.26;101622.06;1048132;28;20815;-79
2022/06/21 00:14:21;;;;;;;7.72;4.75;;;;;;;8.18;96.05;101625.81;1049145;28;20055;-79
2022/06/21 00:14:53;;;;;;;9.43;5.10;;;;;;;8.46;96.26;101627.88;1043280;28;20323;-79
2022/06/21 00:15:24;;;;;;;7.22;5.07;;;;;;;8.66;96.32;101626.34;1044085;28;20347;-79
2022/06/21 00:16:02;;;;;;;5.05;4.57;;;;;;;8.84;95.52;101623.31;1044527;28;20310;-79
2022/06/21 00:16:35;;;;;;;7.75;5.38;;;;;;;8.89;95.52;101628.88;1051672;27;20336;-79
2022/06/21 00:17:11;;;;;;;10.18;5.60;;;;;;;8.78;95.73;101621.41;1049424;28;20775;-79
2022/06/21 00:17:46;;;;;;;5.65;4.93;;;;;;;8.69;95.44;101623.31;1048037;28;20318;-79
2022/06/21 00:18:20;;;;;;;5.90;5.00;;;;;;;8.56;95.74;101631.13;1054129;28;20377;-78
2022/06/21 00:18:52;;;;;;;4.85;4.45;;;;;;;8.35;95.04;101626.53;1051728;28;20657;-79
2022/06/21 00:19:24;;;;;;;4.95;4.40;;;;;;;8.12;93.95;101629.22;1045627;28;20302;-79
2022/06/21 00:19:57;;;;;;;3.90;3.47;;;;;;;8.34;94.74;101628.34;1048875;28;20299;-79
2022/06/21 00:20:28;;;;;;;6.50;4.13;;;;;;;8.55;94.17;101629.47;1043932;28;20299;-79
2022/06/21 00:21:00;;;;;;;8.23;4.80;;;;;;;8.68;94.61;101624.31;1050615;28;20320;-79
2022/06/21 00:21:36;;;;;;;4.97;4.45;;;;;;;8.86;94.05;101627.44;1048017;28;20314;-79
2022/06/21 00:22:13;;;;;;;8.25;5.07;;;;;;;9.07;94.29;101628.50;1046905;28;20324;-79
2022/06/21 00:22:45;;;;;;;8.57;4.88;;;;;;;9.18;93.80;101633.31;1047926;28;20306;-79
2022/06/21 00:23:20;;;;;;;9.35;4.57;;;;;;;8.98;92.78;101625.94;1046078;28;20297;-79
2022/06/21 00:23:53;;;;;;;9.38;5.15;;;;;;;8.57;92.67;101627.44;1047258;28;20303;-79
2022/06/21 00:24:25;;;;;;;6.57;5.05;;;;;;;8.18;92.75;101625.81;1044992;28;20303;-79
2022/06/21 00:24:57;;;;;;;5.80;4.50;;;;;;;8.06;93.76;101629.94;1049238;28;20310;-79
2022/06/21 00:25:28;;;;;;;8.82;4.50;;;;;;;8.14;94.55;101631.69;1055053;27;20304;-79
2022/06/21 00:26:00;;;;;;;7.95;4.68;;;;;;;8.23;94.98;101622.66;1048783;28;20311;-79
2022/06/21 00:26:32;;;;;;;6.55;4.68;;;;;;;8.36;95.44;101625.53;1043339;28;20334;-79
2022/06/21 00:27:11;;;;;;;5.57;4.53;;;;;;;8.32;95.42;101625.03;1048284;28;20298;-79
2022/06/21 00:27:43;;;;;;;9.63;4.68;;;;;;;8.27;95.86;101627.41;1048249;28;20302;-79
2022/06/21 00:28:15;;;;;;;10.15;5.05;;;;;;;8.47;95.59;101621.56;1044086;28;20378;-79
2022/06/21 00:28:48;;;;;;;5.78;5.05;;;;;;;8.50;96.04;101626.53;1042863;28;20318;-79
2022/06/21 00:29:19;;;;;;;9.15;5.50;;;;;;;8.55;95.88;101618.84;1046686;28;20338;-79
2022/06/21 00:29:51;;;;;;;6.93;5.43;;;;;;;8.62;95.48;101619.75;1048110;28;20307;-79
2022/06/21 00:30:23;;;;;;;9.35;5.20;;;;;;;8.50;95.39;101629.19;1047859;28;20310;-79
2022/06/21 00:30:55;;;;;;;6.30;4.80;;;;;;;8.39;95.83;101634.94;1044338;28;20707;-80
2022/06/21 00:31:31;;;;;;;7.00;4.70;;;;;;;8.34;95.13;101627.53;1048073;28;20809;-79
2022/06/21 00:32:03;;;;;;;7.30;4.85;;;;;;;8.82;94.98;101630.66;1047307;28;20302;-79
2022/06/21 00:32:35;;;;;;;8.57;5.78;;;;;;;8.97;94.61;101624.28;1049267;28;20291;-79
2022/06/21 00:33:15;;;;;;;7.00;5.57;;;;;;;9.05;93.86;101627.88;1048858;28;20306;-79
2022/06/21 00:33:47;;;;;;;7.00;5.18;;;;;;;9.03;94.06;101627.19;1047010;28;20364;-79
2022/06/21 00:34:20;;;;;;;7.32;5.10;;;;;;;9.03;92.96;101624.53;1048146;28;20455;-79
2022/06/21 00:34:52;;;;;;;8.55;4.50;;;;;;;9.08;93.17;101632.81;1045820;28;20291;-79
2022/06/21 00:35:25;;;;;;;5.45;4.95;;;;;;;9.12;93.29;101631.41;1042930;28;20310;-79
2022/06/21 00:35:59;;;;;;;6.65;5.60;;;;;;;8.96;92.72;101627.13;1047774;28;20303;-80
2022/06/21 00:36:36;;;;;;;6.25;5.55;;;;;;;8.44;92.80;101628.06;1046534;28;20295;-79
2022/06/21 00:37:20;;;;;;;7.15;4.15;;;;;;;8.00;93.50;101630.66;1052319;28;20309;-79
2022/06/21 00:37:53;;;;;;;5.43;4.60;;;;;;;7.96;94.19;101618.75;1047151;28;20294;-79
2022/06/21 00:38:42;;;;;;;6.68;3.95;;;;;;;8.20;94.32;101623.81;1054109;28;20301;-79
2022/06/21 00:39:16;;;;;;;7.95;5.60;;;;;;;8.57;94.42;101617.66;1049664;28;20298;-79
2022/06/21 00:39:48;;;;;;;5.93;4.68;;;;;;;8.72;94.42;101620.28;1050426;28;20294;-79
2022/06/21 00:40:33;;;;;;;5.93;5.32;;;;;;;8.64;94.13;101620.38;1051585;28;20298;-79
2022/06/21 00:41:06;;;;;;;8.93;5.38;;;;;;;8.64;93.43;101618.56;1053063;28;20294;-79
2022/06/21 00:41:53;;;;;;;10.20;5.28;;;;;;;8.49;94.05;101611.59;1054696;28;20306;-79
2022/06/21 00:42:29;;;;;;;7.88;4.60;;;;;;;8.55;93.17;101624.16;1048401;28;20298;-79
2022/06/21 00:43:09;;;;;;;10.98;5.00;;;;;;;8.31;93.29;101623.38;1044781;28;20287;-79
2022/06/21 00:43:45;;;;;;;18.58;4.93;;;;;;;8.01;92.57;101611.09;1044136;28;20295;-79
2022/06/21 00:44:30;;;;;;;15.45;5.03;;;;;;;7.91;93.74;101621.94;1049653;28;20780;-79
2022/06/21 00:45:27;;;;;;;7.75;5.15;;;;;;;8.17;93.82;101626.81;1050622;28;20784;-79
2022/06/21 00:46:01;;;;;;;7.20;4.90;;;;;;;8.54;94.31;101622.50;1044276;28;20296;-79
2022/06/21 00:46:39;;;;;;;8.57;5.00;;;;;;;8.25;92.89;101621.47;1044014;28;20381;-79
2022/06/21 00:47:23;;;;;;;6.32;4.70;;;;;;;7.69;93.82;101622.81;1041607;28;20869;-79
2022/06/21 00:48:09;;;;;;;7.75;4.93;;;;;;;7.97;94.85;101623.88;1042796;28;20299;-79
2022/06/21 00:48:42;;;;;;;6.10;4.75;;;;;;;7.85;95.05;101619.19;1045757;28;20296;-79
2022/06/21 00:49:25;;;;;;;8.07;5.45;;;;;;;8.06;95.36;101624.63;1059749;27;20395;-79
2022/06/21 00:49:59;;;;;;;7.70;5.07;;;;;;;8.08;95.30;101617.31;1052401;28;20298;-79
2022/06/21 00:50:34;;;;;;;5.97;4.63;;;;;;;8.04;96.03;101616.03;1052014;28;20047;-80
2022/06/21 00:51:14;;;;;;;4.50;4.10;;;;;;;7.84;95.52;101621.00;1054524;28;20328;-79
2022/06/21 00:51:47;;;;;;;5.50;4.32;;;;;;;7.98;95.39;101617.56;1055561;28;20297;-79
2022/06/21 00:52:24;;;;;;;6.88;4.65;;;;;;;7.98;95.79;101622.88;1052175;28;20055;-80
2022/06/21 00:53:07;;;;;;;6.80;5.00;;;;;;;7.65;95.40;101616.19;1043898;28;20297;-79
2022/06/21 00:53:42;;;;;;;7.53;4.20;;;;;;;7.64;95.96;101619.84;1047606;28;20668;-79
2022/06/21 00:54:43;;;;;;;7.95;4.80;;;;;;;7.63;95.82;101619.00;1051858;28;20301;-79
2022/06/21 00:55:19;;;;;;;8.18;4.15;;;;;;;7.71;95.77;101616.31;1046480;27;20373;-80
2022/06/21 00:56:00;;;;;;;9.63;4.38;;;;;;;7.47;96.07;101616.50;1049003;28;20452;-80
2022/06/21 00:56:39;;;;;;;7.07;4.82;;;;;;;7.27;96.34;101615.31;1043929;28;20291;-79
2022/06/21 00:57:14;;;;;;;5.05;4.55;;;;;;;7.34;96.36;101618.91;1049467;28;20310;-79
2022/06/21 00:57:52;;;;;;;7.18;4.68;;;;;;;7.31;96.96;101613.94;1047186;28;20334;-79
2022/06/21 00:58:30;;;;;;;7.88;4.53;;;;;;;7.22;96.98;101615.00;1042089;28;20314;-79
2022/06/21 00:59:15;;;;;;;5.63;4.88;;;;;;;7.11;97.04;101611.75;1043831;28;20314;-80
2022/06/21 00:59:50;;;;;;;6.35;4.47;;;;;;;7.09;97.16;101616.38;1046148;28;20662;-80
2022/06/21 01:00:34;;;;;;;6.68;4.82;;;;;;;7.05;97.59;101604.50;1052036;28;20305;-79
2022/06/21 01:01:21;;;;;;;5.18;4.78;;;;;;;6.92;97.83;101603.44;1051852;28;20393;-80
2022/06/21 01:02:18;;;;;;;4.68;4.30;;;;;;;7.03;98.25;101606.50;1048036;28;20305;-79
2022/06/21 01:02:50;;;;;;;4.65;4.25;;;;;;;6.94;98.45;101604.06;1038145;28;20301;-79
2022/06/21 01:03:25;;;;;;;11.23;6.22;;;;;;;6.89;98.93;101604.59;1047767;28;20298;-79
2022/06/21 01:03:58;;;;;;;7.43;5.20;;;;;;;6.79;99.03;101603.97;1048060;28;20310;-79
2022/06/21 01:04:34;;;;;;;6.18;5.13;;;;;;;7.01;99.23;101603.19;1050237;28;20831;-80
2022/06/21 01:05:06;;;;;;;7.95;5.13;;;;;;;6.97;98.97;101601.91;1054181;28;20309;-80
2022/06/21 01:05:42;;;;;;;6.82;6.05;;;;;;;7.07;98.92;101601.66;1049281;28;20720;-79
2022/06/21 01:06:26;;;;;;;6.85;5.68;;;;;;;7.43;99.31;101602.78;1052697;28;20301;-79
2022/06/21 01:07:00;;;;;;;9.77;6.22;;;;;;;7.32;98.70;101597.03;1049349;28;20305;-79
2022/06/21 01:07:32;;;;;;;5.25;4.78;;;;;;;7.19;98.19;101607.41;1047474;28;20317;-79
2022/06/21 01:08:04;;;;;;;7.25;5.22;;;;;;;7.20;98.16;101603.75;1051902;28;20302;-80
2022/06/21 01:08:40;;;;;;;5.20;4.68;;;;;;;7.11;98.04;101602.97;1052185;28;20365;-79
2022/06/21 01:09:20;;;;;;;5.43;4.93;;;;;;;7.00;98.45;101604.19;1052185;28;20298;-80
2022/06/21 01:09:57;;;;;;;5.93;5.15;;;;;;;6.88;98.54;101602.94;1046427;28;20295;-79
2022/06/21 01:10:29;;;;;;;5.88;4.65;;;;;;;7.22;98.93;101607.06;1046556;28;20437;-80
2022/06/21 01:11:05;;;;;;;6.97;5.35;;;;;;;7.19;98.44;101602.13;1050080;28;20341;-79
2022/06/21 01:11:45;;;;;;;12.88;5.47;;;;;;;7.06;98.81;101605.31;1049726;28;20291;-80
2022/06/21 01:12:27;;;;;;;6.65;5.80;;;;;;;6.95;99.22;101609.19;1051959;28;20347;-80
2022/06/21 01:13:08;;;;;;;6.53;4.97;;;;;;;6.93;99.20;101608.53;1051970;28;20656;-79
2022/06/21 01:13:46;;;;;;;5.75;5.15;;;;;;;7.16;99.16;101602.47;1056229;28;20289;-79
2022/06/21 01:14:21;;;;;;;6.72;4.93;;;;;;;7.34;99.09;101610.94;1054739;28;20669;-79
2022/06/21 01:14:56;;;;;;;6.05;5.50;;;;;;;7.19;99.43;101610.06;1052305;28;20289;-79
2022/06/21 01:15:33;;;;;;;6.07;4.38;;;;;;;7.11;98.40;101603.78;1052137;28;20302;-79
2022/06/21 01:16:05;;;;;;;5.55;4.75;;;;;;;7.07;98.20;101613.09;1045934;28;20333;-79
2022/06/21 01:16:38;;;;;;;8.07;5.55;;;;;;;6.91;98.37;101602.59;1051851;28;20309;-79
2022/06/21 01:17:11;;;;;;;6.18;5.57;;;;;;;6.87;98.47;101597.84;1051899;28;20306;-79
2022/06/21 01:17:43;;;;;;;6.22;5.13;;;;;;;6.95;99.52;101603.91;1048710;28;20691;-79
2022/06/21 01:18:18;;;;;;;5.07;4.32;;;;;;;7.23;98.87;101600.75;1052184;28;20297;-79
2022/06/21 01:18:49;;;;;;;10.77;4.75;;;;;;;7.30;98.83;101597.22;1051734;28;20294;-79
2022/06/21 01:19:42;;;;;;;6.20;5.22;;;;;;;7.16;98.74;101597.16;1048633;28;20337;-79
2022/06/21 01:20:20;;;;;;;9.30;5.38;;;;;;;7.27;98.74;101594.09;1051611;28;20285;-80
2022/06/21 01:20:55;;;;;;;5.63;4.93;;;;;;;7.48;98.54;101599.59;1056187;28;20297;-79
2022/06/21 01:21:29;;;;;;;6.97;5.13;;;;;;;7.19;98.25;101596.81;1054556;28;20301;-79
2022/06/21 01:22:09;;;;;;;8.35;5.43;;;;;;;7.16;98.41;101594.53;1048131;28;20295;-79
2022/06/21 01:23:02;;;;;;;5.45;4.97;;;;;;;7.52;98.19;101595.59;1052931;28;20699;-79
2022/06/21 01:23:51;;;;;;;6.40;5.70;;;;;;;7.59;97.28;101588.56;1056358;27;20301;-79
2022/06/21 01:24:39;;;;;;;7.55;5.10;;;;;;;7.52;96.89;101590.28;1052415;28;20294;-79
2022/06/21 01:25:48;;;;;;;6.70;5.28;;;;;;;7.42;97.09;101589.72;1054430;28;20297;-79
2022/06/21 01:26:35;;;;;;;10.07;6.38;;;;;;;7.70;97.04;101592.63;1052699;28;20343;-79
2022/06/21 01:27:06;;;;;;;11.05;5.07;;;;;;;7.75;97.19;101593.75;1055444;28;20285;-79
2022/06/21 01:27:38;;;;;;;10.32;5.32;;;;;;;7.67;96.68;101593.81;1055843;28;20828;-79
2022/06/21 01:28:11;;;;;;;7.32;4.93;;;;;;;7.79;96.58;101593.38;1055541;27;20289;-79
2022/06/21 01:28:43;;;;;;;5.80;5.30;;;;;;;7.57;96.24;101595.03;1054718;28;20301;-79
2022/06/21 01:29:17;;;;;;;6.97;4.75;;;;;;;7.38;96.57;101598.97;1053747;28;20302;-79
2022/06/21 01:29:50;;;;;;;9.07;5.50;;;;;;;7.30;96.76;101593.75;1051846;28;20302;-79
2022/06/21 01:30:27;;;;;;;7.55;5.28;;;;;;;7.12;96.59;101600.16;1051823;28;20395;-79
2022/06/21 01:30:59;;;;;;;8.15;5.05;;;;;;;7.01;96.91;101605.84;1051818;28;20298;-79
2022/06/21 01:31:32;;;;;;;6.22;4.57;;;;;;;7.03;96.96;101598.53;1047974;28;20444;-79
2022/06/21 01:32:05;;;;;;;8.40;4.80;;;;;;;7.01;97.06;101597.91;1051368;28;20387;-79
2022/06/21 01:32:37;;;;;;;4.85;4.20;;;;;;;7.12;97.41;101589.56;1043422;28;20311;-79
2022/06/21 01:33:11;;;;;;;4.72;4.32;;;;;;;7.25;97.19;101598.75;1051877;28;20309;-79
2022/06/21 01:33:43;;;;;;;4.50;4.10;;;;;;;7.28;97.47;101585.97;1051858;28;20357;-79
2022/06/21 01:34:23;;;;;;;6.40;4.28;;;;;;;7.17;97.18;101588.22;1046495;28;20294;-79
2022/06/21 01:34:55;;;;;;;4.75;4.35;;;;;;;7.05;97.72;101587.78;1051042;28;20302;-79
2022/06/21 01:35:29;;;;;;;7.85;5.38;;;;;;;7.12;97.54;101588.72;1050086;28;20182;-79
2022/06/21 01:36:06;;;;;;;5.82;4.22;;;;;;;6.96;97.34;101580.88;1054084;28;20788;-79
2022/06/21 01:36:38;;;;;;;4.10;3.80;;;;;;;6.83;97.78;101586.72;1055162;27;20840;-79
2022/06/21 01:37:18;;;;;;;5.38;4.32;;;;;;;6.76;97.74;101583.13;1054333;28;20304;-79
2022/06/21 01:37:50;;;;;;;5.10;4.03;;;;;;;6.95;98.32;101588.00;1052349;28;20294;-79
2022/06/21 01:38:56;;;;;;;4.53;4.10;;;;;;;6.98;97.68;101587.66;1058947;27;20293;-79
2022/06/21 01:39:50;;;;;;;5.25;4.38;;;;;;;6.71;97.54;101582.84;1052932;28;20309;-80
2022/06/21 01:40:27;;;;;;;6.43;3.97;;;;;;;6.64;97.79;101581.88;1050097;28;20305;-79
2022/06/21 01:41:03;;;;;;;6.07;4.43;;;;;;;6.67;97.97;101590.28;1052149;28;20775;-79
2022/06/21 01:41:52;;;;;;;4.85;4.18;;;;;;;6.71;98.11;101580.19;1048207;28;20328;-80
2022/06/21 01:42:37;;;;;;;10.48;5.57;;;;;;;6.96;98.32;101584.38;1050848;28;20310;-79
2022/06/21 01:43:12;;;;;;;6.22;4.65;;;;;;;6.95;98.09;101592.47;1047996;28;20299;-79
2022/06/21 01:43:45;;;;;;;6.20;4.60;;;;;;;7.22;97.79;101589.34;1047771;28;20310;-79
2022/06/21 01:44:22;;;;;;;4.82;4.32;;;;;;;7.43;97.28;101591.34;1047662;28;20309;-80
2022/06/21 01:45:07;;;;;;;9.93;5.35;;;;;;;7.61;97.37;101589.19;1054588;28;20376;-79
2022/06/21 01:45:45;;;;;;;4.82;4.43;;;;;;;7.69;96.66;101594.47;1052378;28;20294;-79
2022/06/21 01:46:19;;;;;;;6.25;5.25;;;;;;;7.74;96.30;101594.75;1056038;28;20297;-80
2022/06/21 01:46:51;;;;;;;6.93;5.25;;;;;;;7.12;95.60;101589.56;1051787;28;20431;-79
2022/06/21 01:47:27;;;;;;;4.88;4.35;;;;;;;6.92;95.58;101596.31;1046324;28;20311;-79
2022/06/21 01:48:05;;;;;;;5.65;4.47;;;;;;;6.84;95.78;101591.03;1048617;28;20307;-79
2022/06/21 01:48:50;;;;;;;8.35;4.50;;;;;;;6.70;96.15;101589.94;1050038;28;20298;-79
2022/06/21 01:49:26;;;;;;;6.22;3.78;;;;;;;6.86;96.05;101589.06;1047209;28;20856;-79
2022/06/21 01:50:04;;;;;;;4.25;3.85;;;;;;;6.60;95.89;101581.41;1051013;28;20297;-79
2022/06/21 01:50:37;;;;;;;7.47;3.47;;;;;;;6.65;96.13;101580.88;1051753;28;20306;-79
2022/06/21 01:51:13;;;;;;;9.90;4.25;;;;;;;6.86;96.62;101589.06;1047787;28;20307;-79
2022/06/21 01:51:57;;;;;;;8.57;4.38;;;;;;;6.96;96.44;101587.00;1052565;28;20294;-79
2022/06/21 01:52:30;;;;;;;15.57;5.05;;;;;;;7.26;96.48;101589.81;1051720;28;20321;-79
2022/06/21 01:53:02;;;;;;;13.75;6.10;;;;;;;7.33;96.25;101585.44;1052019;28;20641;-79
2022/06/21 01:53:34;;;;;;;14.27;5.32;;;;;;;7.43;96.17;101586.06;1045263;28;20674;-79
2022/06/21 01:54:09;;;;;;;26.85;6.47;;;;;;;7.26;95.78;101587.16;1051838;28;20297;-79
2022/06/21 01:54:44;;;;;;;31.15;5.15;;;;;;;6.81;95.68;101592.19;1047137;28;20654;-79
2022/06/21 01:55:41;;;;;;;21.50;6.32;;;;;;;6.54;95.81;101587.34;1047734;28;20306;-79
2022/06/21 01:56:21;;;;;;;26.77;5.90;;;;;;;6.91;95.94;101597.31;1049120;28;20299;-80
2022/06/21 01:56:53;;;;;;;20.73;5.72;;;;;;;6.61;96.12;101587.53;1042937;28;20400;-79
2022/06/21 01:57:24;;;;;;;16.50;5.50;;;;;;;6.56;96.43;101584.53;1044216;28;20041;-79
2022/06/21 01:57:58;;;;;;;19.38;4.78;;;;;;;6.68;96.74;101589.31;1051656;28;20347;-79
2022/06/21 01:58:33;;;;;;;21.33;5.50;;;;;;;6.82;96.65;101585.09;1051846;28;20302;-79
2022/06/21 01:59:14;;;;;;;32.50;7.25;;;;;;;6.70;97.25;101583.81;1051855;28;20309;-80
2022/06/21 01:59:48;;;;;;;7.32;4.40;;;;;;;6.77;97.40;101584.78;1051723;28;20301;-79
2022/06/21 02:00:19;;;;;;;14.13;5.30;;;;;;;7.07;97.12;101581.31;1052024;28;20313;-80
2022/06/21 02:00:58;;;;;;;11.30;5.90;;;;;;;7.25;97.02;101577.56;1051921;28;20294;-80
2022/06/21 02:01:45;;;;;;;9.60;6.28;;;;;;;7.40;96.44;101581.13;1056164;28;20297;-80
2022/06/21 02:02:21;;;;;;;7.70;5.72;;;;;;;7.01;95.68;101579.34;1050789;28;20301;-80
2022/06/21 02:02:57;;;;;;;13.75;5.53;;;;;;;6.87;95.63;101589.88;1051792;28;20310;-80
2022/06/21 02:03:32;;;;;;;10.95;4.80;;;;;;;6.88;95.72;101581.75;1050231;28;20297;-79
2022/06/21 02:04:05;;;;;;;11.45;4.93;;;;;;;6.59;96.20;101586.88;1050111;28;20336;-79
2022/06/21 02:04:42;;;;;;;6.82;4.85;;;;;;;6.53;96.50;101587.53;1046592;28;20315;-79
2022/06/21 02:05:18;;;;;;;9.57;3.90;;;;;;;6.51;96.63;101585.88;1045259;28;20306;-80
2022/06/21 02:05:54;;;;;;;4.95;3.88;;;;;;;6.39;97.26;101584.63;1046542;28;20322;-79
2022/06/21 02:06:30;;;;;;;12.23;4.53;;;;;;;6.33;97.13;101587.94;1049877;28;20306;-79
2022/06/21 02:07:05;;;;;;;12.27;5.30;;;;;;;6.25;97.89;101584.47;1054043;28;20302;-80
2022/06/21 02:07:44;;;;;;;5.78;4.40;;;;;;;6.35;98.08;101585.13;1047687;28;20741;-80
2022/06/21 02:08:22;;;;;;;5.15;4.65;;;;;;;6.16;98.33;101586.31;1049833;28;20298;-79
2022/06/21 02:08:59;;;;;;;8.10;4.40;;;;;;;6.10;98.57;101587.00;1050711;28;20359;-80
2022/06/21 02:09:35;;;;;;;7.75;4.28;;;;;;;6.22;98.73;101579.53;1053228;28;20742;-80
2022/06/21 02:10:09;;;;;;;6.88;5.07;;;;;;;6.56;99.07;101587.19;1050420;28;20306;-80
2022/06/21 02:10:44;;;;;;;6.72;5.00;;;;;;;6.73;98.94;101584.31;1054306;28;20301;-79
2022/06/21 02:11:23;;;;;;;6.50;4.43;;;;;;;6.94;98.30;101574.94;1047929;28;20297;-80
2022/06/21 02:12:03;;;;;;;6.70;4.53;;;;;;;6.81;98.10;101581.63;1048284;28;20286;-79
2022/06/21 02:12:36;;;;;;;6.97;5.25;;;;;;;6.67;97.74;101582.34;1051957;28;20855;-79
2022/06/21 02:13:16;;;;;;;10.30;4.57;;;;;;;6.68;97.72;101580.53;1050783;28;20040;-80
2022/06/21 02:14:53;;;;;;;4.97;4.47;;;;;;;6.90;96.83;101576.28;1053557;28;20040;-79
2022/06/21 02:15:35;;;;;;;7.70;4.30;;;;;;;6.75;96.36;101571.72;1054544;28;20320;-80
2022/06/21 02:16:11;;;;;;;5.45;3.97;;;;;;;6.37;95.87;101573.38;1053985;28;20314;-79
2022/06/21 02:16:45;;;;;;;5.05;4.65;;;;;;;6.27;96.17;101574.56;1057186;28;20798;-80
2022/06/21 02:17:24;;;;;;;5.85;4.18;;;;;;;6.27;96.71;101572.72;1052993;28;20301;-79
2022/06/21 02:17:57;;;;;;;6.03;4.78;;;;;;;6.32;97.12;101577.53;1057082;28;20666;-79
2022/06/21 02:18:31;;;;;;;5.38;4.90;;;;;;;6.39;97.33;101576.66;1056802;28;20659;-80
2022/06/21 02:19:02;;;;;;;6.68;5.07;;;;;;;6.47;97.67;101570.53;1056512;27;20300;-79
2022/06/21 02:19:38;;;;;;;7.63;5.00;;;;;;;6.68;97.42;101580.53;1053671;28;20306;-79
2022/06/21 02:20:19;;;;;;;9.07;5.18;;;;;;;6.91;97.00;101572.66;1051015;28;20309;-79
2022/06/21 02:21:05;;;;;;;5.50;4.75;;;;;;;6.86;96.82;101565.22;1049005;28;20405;-79
2022/06/21 02:21:40;;;;;;;5.30;4.80;;;;;;;6.89;97.00;101570.19;1058515;27;20289;-79
2022/06/21 02:22:21;;;;;;;5.75;4.55;;;;;;;6.92;96.37;101569.00;1052620;28;20865;-79
2022/06/21 02:22:53;;;;;;;;;;;;;;;6.46;95.64;101569.69;1055710;28;20334;-80
2022/06/21 02:23:25;;;;;;;8.23;4.40;;;;;;;6.28;95.67;101577.03;1060039;27;19926;-79
2022/06/21 02:23:57;;;;;;;11.07;4.15;;;;;;;6.45;95.96;101565.41;1057292;28;20308;-79
2022/06/21 02:24:30;;;;;;;4.40;4.00;;;;;;;6.71;96.00;101564.31;1055236;28;20301;-80
2022/06/21 02:25:02;;;;;;;8.63;4.60;;;;;;;7.03;96.18;101566.75;1051097;28;20312;-79
2022/06/21 02:25:34;;;;;;;7.63;4.38;;;;;;;7.16;95.59;101563.56;1048010;28;20779;-80
2022/06/21 02:26:06;;;;;;;7.18;4.78;;;;;;;7.19;95.21;101557.91;1049325;28;20303;-79
2022/06/21 02:26:38;;;;;;;7.93;5.25;;;;;;;7.04;95.07;101554.34;1046236;28;20307;-79
2022/06/21 02:27:12;;;;;;;9.02;5.18;;;;;;;7.03;94.79;101558.81;1049041;28;20302;-79
2022/06/21 02:27:44;;;;;;;5.53;4.57;;;;;;;7.08;94.93;101561.75;1053926;28;20340;-79
2022/06/21 02:28:16;;;;;;;6.55;5.22;;;;;;;7.02;94.49;101557.16;1049259;28;20310;-79
2022/06/21 02:28:48;;;;;;;9.05;5.13;;;;;;;6.99;94.29;101557.53;1047312;28;20295;-79
2022/06/21 02:29:20;;;;;;;5.53;4.72;;;;;;;7.01;94.59;101555.53;1044424;28;20291;-79
2022/06/21 02:29:55;;;;;;;4.90;4.45;;;;;;;7.03;94.43;101555.34;1044626;28;20312;-79
2022/06/21 02:30:27;;;;;;;6.53;5.50;;;;;;;6.78;94.14;101554.66;1051147;28;20998;-79
2022/06/21 02:30:59;;;;;;;5.68;3.72;;;;;;;6.46;94.40;101553.00;1055493;28;20364;-79
2022/06/21 02:31:31;;;;;;;8.38;4.82;;;;;;;6.36;94.58;101562.97;1057995;27;20309;-79
2022/06/21 02:32:16;;;;;;;5.85;4.60;;;;;;;6.06;95.11;101557.44;1055432;28;20318;-79
2022/06/21 02:32:49;;;;;;;5.40;4.05;;;;;;;6.04;95.50;101569.19;1046701;28;20307;-80
2022/06/21 02:33:24;;;;;;;9.95;4.20;;;;;;;6.06;95.68;101557.44;1051029;28;20294;-79
2022/06/21 02:34:01;;;;;;;5.25;4.63;;;;;;;6.44;95.93;101553.16;1048377;28;20345;-79
2022/06/21 02:34:38;;;;;;;8.77;5.03;;;;;;;6.75;96.49;101568.25;1043260;28;20488;-79
2022/06/21 02:35:25;;;;;;;8.48;4.82;;;;;;;6.59;96.12;101565.69;1046926;28;20294;-79
2022/06/21 02:36:11;;;;;;;5.82;4.10;;;;;;;6.05;95.46;101562.88;1050938;28;20313;-80
2022/06/21 02:36:49;;;;;;;5.53;4.65;;;;;;;5.94;96.01;101556.13;1054000;27;20313;-79
2022/06/21 02:37:21;;;;;;;7.18;4.88;;;;;;;5.89;96.36;101559.28;1048978;28;20319;-79
2022/06/21 02:37:54;;;;;;;4.90;4.43;;;;;;;5.97;96.80;101557.59;1046977;28;20356;-79
2022/06/21 02:38:48;;;;;;;7.10;5.45;;;;;;;6.01;97.53;101557.09;1046044;28;20796;-79
2022/06/21 02:39:23;;;;;;;6.85;4.82;;;;;;;5.98;97.19;101556.59;1046011;28;20307;-79
2022/06/21 02:39:56;;;;;;;8.70;5.18;;;;;;;6.06;97.92;101551.31;1048397;28;20804;-79
2022/06/21 02:40:32;;;;;;;5.78;4.88;;;;;;;6.06;97.95;101546.03;1051613;28;20368;-79
2022/06/21 02:41:12;;;;;;;6.57;5.88;;;;;;;6.10;98.33;101549.97;1049840;28;20367;-79
2022/06/21 02:41:47;;;;;;;6.10;4.95;;;;;;;6.19;98.01;101544.47;1049146;28;20294;-79
2022/06/21 02:42:22;;;;;;;5.70;5.13;;;;;;;6.00;97.88;101541.38;1046852;28;20048;-79
2022/06/21 02:43:00;;;;;;;5.63;4.60;;;;;;;5.97;97.54;101552.31;1049809;28;20307;-79
2022/06/21 02:43:36;;;;;;;5.18;4.65;;;;;;;6.30;97.54;101545.97;1048704;28;20657;-79
2022/06/21 02:44:38;;;;;;;6.05;4.82;;;;;;;6.51;96.74;101554.13;1051138;28;20291;-79
2022/06/21 02:45:25;;;;;;;7.07;4.95;;;;;;;6.33;96.19;101547.44;1040799;28;20411;-79
2022/06/21 02:46:08;;;;;;;5.20;4.70;;;;;;;6.08;96.22;101546.69;1048589;28;20047;-79
2022/06/21 02:46:44;;;;;;;5.60;4.93;;;;;;;5.88;96.47;101547.00;1046939;28;20587;-79
2022/06/21 02:47:20;;;;;;;5.80;4.43;;;;;;;5.79;96.51;101553.31;1052718;28;20699;-79
2022/06/21 02:47:53;;;;;;;5.03;4.53;;;;;;;5.83;97.18;101544.06;1050851;28;20295;-79
2022/06/21 02:48:30;;;;;;;5.40;4.30;;;;;;;5.72;97.42;101544.38;1048719;28;20290;-80
2022/06/21 02:49:11;;;;;;;5.53;4.78;;;;;;;5.57;97.72;101546.06;1052395;28;20791;-80
2022/06/21 02:49:49;;;;;;;4.65;3.70;;;;;;;5.68;97.88;101547.53;1053672;28;20298;-80
2022/06/21 02:50:36;;;;;;;6.18;4.15;;;;;;;5.71;98.30;101540.09;1053989;28;20313;-80
2022/06/21 02:51:11;;;;;;;8.90;4.13;;;;;;;5.79;98.08;101548.03;1055980;28;20303;-80
2022/06/21 02:51:48;;;;;;;5.50;5.00;;;;;;;5.67;97.86;101551.16;1048174;28;20302;-80
2022/06/21 02:52:37;;;;;;;5.70;5.20;;;;;;;5.68;97.88;101551.00;1047070;28;20311;-80
2022/06/21 02:53:22;;;;;;;5.40;4.60;;;;;;;5.94;98.60;101560.56;1050050;28;20298;-81
2022/06/21 02:54:02;;;;;;;7.75;4.70;;;;;;;6.31;98.25;101550.25;1046982;28;20741;-80
2022/06/21 02:54:43;;;;;;;7.90;4.90;;;;;;;6.43;97.89;101551.50;1043906;28;20299;-80